sensor_id;sensor_type;location;lat;lon;timestamp;temperature;humidity
19496;DHT22;9888;48.606;9.630;2022-09-12T00:01:46;7.00;99.90
19496;DHT22;9888;48.606;9.630;2022-09-12T00:04:13;7.00;99.90
19496;DHT22;9888;48.606;9.630;2022-09-12T00:06:41;7.00;99.90
19496;DHT22;9888;48.606;9.630;2022-09-12T00:09:13;7.00;99.90
19496;DHT22;9888;48.606;9.630;2022-09-12T00:11:43;7.00;99.90
19496;DHT22;9888;48.606;9.630;2022-09-12T00:14:13;6.90;99.90
19496;DHT22;9888;48.606;9.630;2022-09-12T00:16:42;6.90;99.90
19496;DHT22;9888;48.606;9.630;2022-09-12T00:19:12;6.90;99.90
19496;DHT22;9888;48.606;9.630;2022-09-12T00:21:40;6.80;99.90
19496;DHT22;9888;48.606;9.630;2022-09-12T00:24:11;6.80;99.90
19496;DHT22;9888;48.606;9.630;2022-09-12T00:26:39;6.80;99.90
19496;DHT22;9888;48.606;9.630;2022-09-12T00:29:23;6.80;99.90
19496;DHT22;9888;48.606;9.630;2022-09-12T00:31:51;6.80;99.90
19496;DHT22;9888;48.606;9.630;2022-09-12T00:34:19;6.80;99.90
19496;DHT22;9888;48.606;9.630;2022-09-12T00:36:46;6.80;99.90
19496;DHT22;9888;48.606;9.630;2022-09-12T00:39:15;6.90;99.90
19496;DHT22;9888;48.606;9.630;2022-09-12T00:42:02;6.90;99.90
19496;DHT22;9888;48.606;9.630;2022-09-12T00:44:42;6.90;99.90
19496;DHT22;9888;48.606;9.630;2022-09-12T00:47:18;6.80;99.90
19496;DHT22;9888;48.606;9.630;2022-09-12T00:50:17;6.80;99.90
19496;DHT22;9888;48.606;9.630;2022-09-12T00:53:01;6.80;99.90
19496;DHT22;9888;48.606;9.630;2022-09-12T00:56:02;6.80;99.90
19496;DHT22;9888;48.606;9.630;2022-09-12T00:59:05;6.70;99.90
19496;DHT22;9888;48.606;9.630;2022-09-12T01:01:53;6.70;99.90
19496;DHT22;9888;48.606;9.630;2022-09-12T01:04:24;6.70;99.90
19496;DHT22;9888;48.606;9.630;2022-09-12T01:07:14;6.70;99.90
19496;DHT22;9888;48.606;9.630;2022-09-12T01:16:38;6.70;99.90
19496;DHT22;9888;48.606;9.630;2022-09-12T01:31:28;6.80;99.90
19496;DHT22;9888;48.606;9.630;2022-09-12T01:45:59;6.80;99.90
19496;DHT22;9888;48.606;9.630;2022-09-12T01:48:36;6.70;99.90
19496;DHT22;9888;48.606;9.630;2022-09-12T01:51:15;6.70;99.90
19496;DHT22;9888;48.606;9.630;2022-09-12T01:53:52;6.70;99.90
19496;DHT22;9888;48.606;9.630;2022-09-12T01:56:32;6.60;99.90
19496;DHT22;9888;48.606;9.630;2022-09-12T01:59:36;6.60;99.90
19496;DHT22;9888;48.606;9.630;2022-09-12T02:02:27;6.60;99.90
19496;DHT22;9888;48.606;9.630;2022-09-12T02:05:19;6.60;99.90
19496;DHT22;9888;48.606;9.630;2022-09-12T02:07:52;6.60;99.90
19496;DHT22;9888;48.606;9.630;2022-09-12T02:20:33;6.30;99.90
19496;DHT22;9888;48.606;9.630;2022-09-12T02:23:11;6.30;99.90
19496;DHT22;9888;48.606;9.630;2022-09-12T02:29:15;6.40;99.90
19496;DHT22;9888;48.606;9.630;2022-09-12T02:55:17;6.30;99.90
19496;DHT22;9888;48.606;9.630;2022-09-12T02:57:53;6.30;99.90
19496;DHT22;9888;48.606;9.630;2022-09-12T03:00:23;6.30;99.90
19496;DHT22;9888;48.606;9.630;2022-09-12T03:15:39;6.20;99.90
19496;DHT22;9888;48.606;9.630;2022-09-12T03:18:34;6.20;99.90
19496;DHT22;9888;48.606;9.630;2022-09-12T03:21:32;6.20;99.90
19496;DHT22;9888;48.606;9.630;2022-09-12T03:30:56;6.20;99.90
19496;DHT22;9888;48.606;9.630;2022-09-12T03:33:26;6.20;99.90
19496;DHT22;9888;48.606;9.630;2022-09-12T03:35:53;6.20;99.90
19496;DHT22;9888;48.606;9.630;2022-09-12T03:38:23;6.20;99.90
19496;DHT22;9888;48.606;9.630;2022-09-12T03:40:54;6.10;99.90
19496;DHT22;9888;48.606;9.630;2022-09-12T03:43:26;6.20;99.90
19496;DHT22;9888;48.606;9.630;2022-09-12T03:45:54;6.10;99.90
19496;DHT22;9888;48.606;9.630;2022-09-12T03:48:22;6.10;99.90
19496;DHT22;9888;48.606;9.630;2022-09-12T03:50:51;6.10;99.90
19496;DHT22;9888;48.606;9.630;2022-09-12T03:53:27;6.20;99.90
19496;DHT22;9888;48.606;9.630;2022-09-12T03:55:59;6.20;99.90
19496;DHT22;9888;48.606;9.630;2022-09-12T04:01:37;6.20;99.90
19496;DHT22;9888;48.606;9.630;2022-09-12T04:04:10;6.20;99.90
19496;DHT22;9888;48.606;9.630;2022-09-12T04:06:37;6.10;99.90
19496;DHT22;9888;48.606;9.630;2022-09-12T04:09:12;6.10;99.90
19496;DHT22;9888;48.606;9.630;2022-09-12T04:11:40;6.10;99.90
19496;DHT22;9888;48.606;9.630;2022-09-12T04:14:13;6.00;99.90
19496;DHT22;9888;48.606;9.630;2022-09-12T04:16:42;6.10;99.90
19496;DHT22;9888;48.606;9.630;2022-09-12T04:19:10;6.10;99.90
19496;DHT22;9888;48.606;9.630;2022-09-12T04:21:38;6.00;99.90
19496;DHT22;9888;48.606;9.630;2022-09-12T04:24:17;6.00;99.90
19496;DHT22;9888;48.606;9.630;2022-09-12T04:26:45;6.00;99.90
19496;DHT22;9888;48.606;9.630;2022-09-12T04:29:14;6.00;99.90
19496;DHT22;9888;48.606;9.630;2022-09-12T04:31:57;5.90;99.90
19496;DHT22;9888;48.606;9.630;2022-09-12T04:34:29;5.90;99.90
19496;DHT22;9888;48.606;9.630;2022-09-12T04:37:00;6.00;99.90
19496;DHT22;9888;48.606;9.630;2022-09-12T04:39:56;6.00;99.90
19496;DHT22;9888;48.606;9.630;2022-09-12T04:45:48;5.80;99.90
19496;DHT22;9888;48.606;9.630;2022-09-12T04:48:16;5.80;99.90
19496;DHT22;9888;48.606;9.630;2022-09-12T04:50:43;5.80;99.90
19496;DHT22;9888;48.606;9.630;2022-09-12T04:53:11;5.80;99.90
19496;DHT22;9888;48.606;9.630;2022-09-12T04:55:38;5.80;99.90
19496;DHT22;9888;48.606;9.630;2022-09-12T04:58:15;5.80;99.90
19496;DHT22;9888;48.606;9.630;2022-09-12T05:00:50;5.80;99.90
19496;DHT22;9888;48.606;9.630;2022-09-12T05:03:29;5.80;99.90
19496;DHT22;9888;48.606;9.630;2022-09-12T05:05:56;5.80;99.90
19496;DHT22;9888;48.606;9.630;2022-09-12T05:08:24;5.80;99.90
19496;DHT22;9888;48.606;9.630;2022-09-12T05:10:55;5.80;99.90
19496;DHT22;9888;48.606;9.630;2022-09-12T05:13:30;5.90;99.90
19496;DHT22;9888;48.606;9.630;2022-09-12T05:15:59;6.00;99.90
19496;DHT22;9888;48.606;9.630;2022-09-12T05:18:27;6.00;99.90
19496;DHT22;9888;48.606;9.630;2022-09-12T05:20:57;6.10;99.90
19496;DHT22;9888;48.606;9.630;2022-09-12T05:23:29;6.10;99.90
19496;DHT22;9888;48.606;9.630;2022-09-12T05:25:57;6.00;99.90
19496;DHT22;9888;48.606;9.630;2022-09-12T05:28:30;6.10;99.90
19496;DHT22;9888;48.606;9.630;2022-09-12T05:31:04;6.10;99.90
19496;DHT22;9888;48.606;9.630;2022-09-12T05:33:34;6.20;99.90
19496;DHT22;9888;48.606;9.630;2022-09-12T05:36:37;6.30;99.90
19496;DHT22;9888;48.606;9.630;2022-09-12T05:39:06;6.40;99.90
19496;DHT22;9888;48.606;9.630;2022-09-12T05:41:35;6.50;99.90
19496;DHT22;9888;48.606;9.630;2022-09-12T05:44:10;6.60;99.90
19496;DHT22;9888;48.606;9.630;2022-09-12T05:46:41;6.80;99.90
19496;DHT22;9888;48.606;9.630;2022-09-12T05:49:17;7.00;99.90
19496;DHT22;9888;48.606;9.630;2022-09-12T05:51:45;7.10;99.90
19496;DHT22;9888;48.606;9.630;2022-09-12T05:54:18;7.20;99.90
19496;DHT22;9888;48.606;9.630;2022-09-12T05:56:47;7.40;99.90
19496;DHT22;9888;48.606;9.630;2022-09-12T05:59:19;7.50;99.90
19496;DHT22;9888;48.606;9.630;2022-09-12T06:01:48;7.70;99.90
19496;DHT22;9888;48.606;9.630;2022-09-12T06:04:15;7.90;99.90
19496;DHT22;9888;48.606;9.630;2022-09-12T06:06:44;8.10;99.90
19496;DHT22;9888;48.606;9.630;2022-09-12T06:09:14;8.20;99.90
19496;DHT22;9888;48.606;9.630;2022-09-12T06:11:45;8.40;99.90
19496;DHT22;9888;48.606;9.630;2022-09-12T06:14:15;8.50;99.90
19496;DHT22;9888;48.606;9.630;2022-09-12T06:16:51;8.60;99.90
19496;DHT22;9888;48.606;9.630;2022-09-12T06:20:00;8.70;99.90
19496;DHT22;9888;48.606;9.630;2022-09-12T06:22:29;8.80;99.90
19496;DHT22;9888;48.606;9.630;2022-09-12T06:24:56;9.00;99.90
19496;DHT22;9888;48.606;9.630;2022-09-12T06:27:47;9.10;99.90
19496;DHT22;9888;48.606;9.630;2022-09-12T06:30:29;9.30;99.90
19496;DHT22;9888;48.606;9.630;2022-09-12T06:32:57;9.50;99.90
19496;DHT22;9888;48.606;9.630;2022-09-12T06:35:25;9.60;99.90
19496;DHT22;9888;48.606;9.630;2022-09-12T06:37:53;9.80;99.90
19496;DHT22;9888;48.606;9.630;2022-09-12T06:43:43;10.10;99.90
19496;DHT22;9888;48.606;9.630;2022-09-12T06:46:11;10.30;99.90
19496;DHT22;9888;48.606;9.630;2022-09-12T06:48:48;10.50;99.90
19496;DHT22;9888;48.606;9.630;2022-09-12T06:58:13;11.20;99.90
19496;DHT22;9888;48.606;9.630;2022-09-12T07:17:59;12.70;99.90
19496;DHT22;9888;48.606;9.630;2022-09-12T07:20:27;13.00;99.90
19496;DHT22;9888;48.606;9.630;2022-09-12T07:23:00;13.20;99.90
19496;DHT22;9888;48.606;9.630;2022-09-12T07:25:30;13.50;99.90
19496;DHT22;9888;48.606;9.630;2022-09-12T07:28:03;13.80;99.90
19496;DHT22;9888;48.606;9.630;2022-09-12T07:30:35;14.10;99.90
19496;DHT22;9888;48.606;9.630;2022-09-12T07:33:06;14.40;99.90
19496;DHT22;9888;48.606;9.630;2022-09-12T07:35:36;14.70;99.90
19496;DHT22;9888;48.606;9.630;2022-09-12T07:38:04;15.10;99.90
19496;DHT22;9888;48.606;9.630;2022-09-12T07:40:35;15.50;99.90
19496;DHT22;9888;48.606;9.630;2022-09-12T07:43:18;15.80;99.90
19496;DHT22;9888;48.606;9.630;2022-09-12T07:45:56;16.20;99.90
19496;DHT22;9888;48.606;9.630;2022-09-12T07:48:24;16.50;99.90
19496;DHT22;9888;48.606;9.630;2022-09-12T07:57:55;17.50;99.90
19496;DHT22;9888;48.606;9.630;2022-09-12T08:00:30;17.80;99.90
19496;DHT22;9888;48.606;9.630;2022-09-12T08:03:08;17.90;99.90
19496;DHT22;9888;48.606;9.630;2022-09-12T08:05:38;18.20;99.90
19496;DHT22;9888;48.606;9.630;2022-09-12T08:08:05;18.50;99.90
19496;DHT22;9888;48.606;9.630;2022-09-12T08:10:33;18.80;99.90
19496;DHT22;9888;48.606;9.630;2022-09-12T08:13:03;19.20;99.90
19496;DHT22;9888;48.606;9.630;2022-09-12T08:15:31;19.50;99.90
19496;DHT22;9888;48.606;9.630;2022-09-12T08:18:01;20.00;99.90
19496;DHT22;9888;48.606;9.630;2022-09-12T08:20:31;20.30;99.90
19496;DHT22;9888;48.606;9.630;2022-09-12T08:23:02;20.70;99.90
19496;DHT22;9888;48.606;9.630;2022-09-12T08:25:30;21.20;99.90
19496;DHT22;9888;48.606;9.630;2022-09-12T08:28:00;21.60;99.90
19496;DHT22;9888;48.606;9.630;2022-09-12T08:30:27;22.10;99.90
19496;DHT22;9888;48.606;9.630;2022-09-12T22:13:49;9.60;99.90
19496;DHT22;9888;48.606;9.630;2022-09-12T22:16:17;9.60;99.90
19496;DHT22;9888;48.606;9.630;2022-09-12T22:18:54;9.60;99.90
19496;DHT22;9888;48.606;9.630;2022-09-12T22:21:21;9.50;99.90
19496;DHT22;9888;48.606;9.630;2022-09-12T22:23:49;9.50;99.90
19496;DHT22;9888;48.606;9.630;2022-09-12T22:26:44;9.50;99.90
19496;DHT22;9888;48.606;9.630;2022-09-12T22:29:12;9.40;99.90
19496;DHT22;9888;48.606;9.630;2022-09-12T22:31:40;9.40;99.90
19496;DHT22;9888;48.606;9.630;2022-09-12T22:34:07;9.50;99.90
19496;DHT22;9888;48.606;9.630;2022-09-12T22:36:35;9.50;99.90
19496;DHT22;9888;48.606;9.630;2022-09-12T22:39:03;9.50;99.90
19496;DHT22;9888;48.606;9.630;2022-09-12T22:41:31;9.50;99.90
19496;DHT22;9888;48.606;9.630;2022-09-12T22:44:01;9.50;99.90
19496;DHT22;9888;48.606;9.630;2022-09-12T22:46:29;9.40;99.90
19496;DHT22;9888;48.606;9.630;2022-09-12T22:48:58;9.40;99.90
19496;DHT22;9888;48.606;9.630;2022-09-12T22:51:26;9.40;99.90
19496;DHT22;9888;48.606;9.630;2022-09-12T22:53:54;9.40;99.90
19496;DHT22;9888;48.606;9.630;2022-09-12T22:56:23;9.30;99.90
19496;DHT22;9888;48.606;9.630;2022-09-12T22:58:52;9.20;99.90
19496;DHT22;9888;48.606;9.630;2022-09-12T23:05:00;9.20;99.90
19496;DHT22;9888;48.606;9.630;2022-09-12T23:07:28;9.20;99.90
19496;DHT22;9888;48.606;9.630;2022-09-12T23:09:57;9.10;99.90
19496;DHT22;9888;48.606;9.630;2022-09-12T23:12:53;9.10;99.90
19496;DHT22;9888;48.606;9.630;2022-09-12T23:18:55;9.10;99.90
19496;DHT22;9888;48.606;9.630;2022-09-12T23:21:24;9.10;99.90
19496;DHT22;9888;48.606;9.630;2022-09-12T23:23:52;9.10;99.90
19496;DHT22;9888;48.606;9.630;2022-09-12T23:26:23;9.00;99.90
19496;DHT22;9888;48.606;9.630;2022-09-12T23:29:00;9.00;99.90
19496;DHT22;9888;48.606;9.630;2022-09-12T23:31:29;9.10;99.90
19496;DHT22;9888;48.606;9.630;2022-09-12T23:34:00;9.00;99.90
19496;DHT22;9888;48.606;9.630;2022-09-12T23:36:38;9.00;99.90
19496;DHT22;9888;48.606;9.630;2022-09-12T23:39:08;9.00;99.90
19496;DHT22;9888;48.606;9.630;2022-09-12T23:41:36;9.00;99.90
19496;DHT22;9888;48.606;9.630;2022-09-12T23:44:04;9.00;99.90
19496;DHT22;9888;48.606;9.630;2022-09-12T23:46:36;9.00;99.90
19496;DHT22;9888;48.606;9.630;2022-09-12T23:49:05;9.00;99.90
19496;DHT22;9888;48.606;9.630;2022-09-12T23:51:35;9.00;99.90
19496;DHT22;9888;48.606;9.630;2022-09-12T23:54:02;9.00;99.90
19496;DHT22;9888;48.606;9.630;2022-09-12T23:56:31;9.00;99.90
19496;DHT22;9888;48.606;9.630;2022-09-12T23:58:58;9.00;99.90
